Time;durP1;ratioP1;P1;durP2;ratioP2;P2;SDS_P1;SDS_P2;PMS_P1;PMS_P2;Temp;Humidity;BMP_temperature;BMP_pressure;BME280_temperature;BME280_humidity;BME280_pressure;Samples;Min_cycle;Max_cycle;Signal;HPM_P1;HPM_P2
2024/02/13 00:02:13;;;;;;;;;;;;;;;1.46;100.00;100911.00;5107790;27;20301;-82
2024/02/13 00:04:38;;;;;;;;;;;;;;;1.47;100.00;100918.00;5119848;27;20366;-81
2024/02/13 00:07:03;;;;;;;;;;;;;;;1.51;100.00;100924.72;5121471;27;19985;-82
2024/02/13 00:09:28;;;;;;;;;;;;;;;1.51;100.00;100928.19;5116107;27;19919;-82
2024/02/13 00:11:53;;;;;;;;;;;;;;;1.52;100.00;100923.75;5124075;27;19923;-82
2024/02/13 00:14:19;;;;;;;;;;;;;;;1.51;100.00;100922.06;5133186;27;19923;-81
2024/02/13 00:16:44;;;;;;;;;;;;;;;1.53;100.00;100930.72;5125335;27;20339;-82
2024/02/13 00:19:11;;;;;;;;;;;;;;;1.52;100.00;100931.69;5126937;27;19915;-81
2024/02/13 00:21:36;;;;;;;;;;;;;;;1.46;100.00;100934.88;5118721;27;20264;-82
2024/02/13 00:24:02;;;;;;;;;;;;;;;1.46;100.00;100938.41;5128257;27;20389;-82
2024/02/13 00:26:27;;;;;;;;;;;;;;;1.46;100.00;100948.16;5115729;27;20332;-82
2024/02/13 00:28:52;;;;;;;;;;;;;;;1.40;100.00;100938.09;5125886;27;19946;-82
2024/02/13 00:31:17;;;;;;;;;;;;;;;1.42;100.00;100944.09;5119622;27;19926;-82
2024/02/13 00:33:45;;;;;;;;;;;;;;;1.36;100.00;100938.38;5121549;27;20359;-83
2024/02/13 00:36:12;;;;;;;;;;;;;;;1.36;100.00;100938.38;5125229;27;19988;-82
2024/02/13 00:38:40;;;;;;;;;;;;;;;1.32;100.00;100941.44;5126227;27;20458;-82
2024/02/13 00:41:05;;;;;;;;;;;;;;;1.32;100.00;100936.94;5123709;27;19997;-82
2024/02/13 00:43:30;;;;;;;;;;;;;;;1.31;100.00;100937.09;5125910;27;19934;-82
2024/02/13 00:45:57;;;;;;;;;;;;;;;1.33;100.00;100954.53;5124928;27;19930;-82
2024/02/13 00:48:22;;;;;;;;;;;;;;;1.34;100.00;100948.25;5124715;27;20359;-82
2024/02/13 00:50:48;;;;;;;;;;;;;;;1.33;100.00;100949.22;5125131;27;19920;-82
2024/02/13 00:53:15;;;;;;;;;;;;;;;1.47;100.00;100953.34;5122802;27;19924;-82
2024/02/13 00:55:42;;;;;;;;;;;;;;;1.48;100.00;100959.47;5128975;27;19977;-82
2024/02/13 00:58:07;;;;;;;;;;;;;;;1.44;100.00;100960.72;5121755;27;19919;-82
2024/02/13 01:00:33;;;;;;;;;;;;;;;1.39;100.00;100965.59;5116892;27;19935;-83
2024/02/13 01:02:58;;;;;;;;;;;;;;;1.40;100.00;100967.28;5113814;27;19924;-82
2024/02/13 01:05:24;;;;;;;;;;;;;;;1.39;100.00;100969.06;5125174;27;20283;-82
2024/02/13 01:07:51;;;;;;;;;;;;;;;1.35;100.00;100968.50;5124409;27;20420;-82
2024/02/13 01:10:18;;;;;;;;;;;;;;;1.33;100.00;100974.91;5121511;27;19934;-82
2024/02/13 01:12:44;;;;;;;;;;;;;;;1.29;100.00;100968.22;5134238;27;19923;-82
2024/02/13 01:15:10;;;;;;;;;;;;;;;1.30;100.00;100975.19;5119743;27;19923;-82
2024/02/13 01:17:35;;;;;;;;;;;;;;;1.26;100.00;100981.72;5124409;27;19989;-82
2024/02/13 01:20:00;;;;;;;;;;;;;;;1.29;100.00;100979.66;5127065;27;20332;-82
2024/02/13 01:22:27;;;;;;;;;;;;;;;1.27;100.00;100978.94;5114541;27;20406;-82
2024/02/13 01:24:53;;;;;;;;;;;;;;;1.29;100.00;100984.94;5122905;27;19923;-82
2024/02/13 01:27:19;;;;;;;;;;;;;;;1.28;100.00;100988.56;5135188;27;19930;-82
2024/02/13 01:29:44;;;;;;;;;;;;;;;1.27;100.00;100984.22;5126470;27;19988;-82
2024/02/13 01:32:09;;;;;;;;;;;;;;;1.29;100.00;100989.44;5130963;27;20382;-82
2024/02/13 01:34:35;;;;;;;;;;;;;;;1.26;100.00;100987.84;5125492;27;19976;-83
2024/02/13 01:37:00;;;;;;;;;;;;;;;1.26;100.00;100985.22;5117818;27;20371;-82
2024/02/13 01:39:25;;;;;;;;;;;;;;;1.25;100.00;100993.31;5119376;27;19968;-82
2024/02/13 01:41:51;;;;;;;;;;;;;;;1.23;100.00;100985.50;5115228;27;20014;-82
2024/02/13 01:44:16;;;;;;;;;;;;;;;1.25;100.00;100982.69;5118707;27;20395;-82
2024/02/13 01:46:41;;;;;;;;;;;;;;;1.25;100.00;100991.47;5122094;27;19924;-82
2024/02/13 01:49:08;;;;;;;;;;;;;;;1.25;100.00;100986.19;5126461;27;19967;-83
2024/02/13 01:51:34;;;;;;;;;;;;;;;1.25;100.00;100988.84;5101156;27;19916;-82
2024/02/13 01:54:00;;;;;;;;;;;;;;;1.20;100.00;100991.88;5114906;27;19924;-83
2024/02/13 01:56:27;;;;;;;;;;;;;;;1.23;100.00;100989.94;5122452;27;20369;-82
2024/02/13 01:58:52;;;;;;;;;;;;;;;1.22;100.00;100991.78;5131459;27;20025;-82
2024/02/13 02:01:18;;;;;;;;;;;;;;;1.15;100.00;100994.09;5110667;27;20057;-82
2024/02/13 02:03:43;;;;;;;;;;;;;;;1.16;100.00;100993.13;5120685;27;20004;-82
2024/02/13 02:06:09;;;;;;;;;;;;;;;1.17;100.00;100996.63;5120526;27;20417;-83
2024/02/13 02:08:34;;;;;;;;;;;;;;;1.17;100.00;100996.63;5119694;27;19926;-82
2024/02/13 02:11:00;;;;;;;;;;;;;;;1.18;100.00;100995.66;5120804;27;19916;-81
2024/02/13 02:13:26;;;;;;;;;;;;;;;1.22;100.00;101002.38;5119203;27;19931;-82
2024/02/13 02:16:10;;;;;;;;;;;;;;;1.21;100.00;100998.03;5096116;28;19938;-82
2024/02/13 02:18:35;;;;;;;;;;;;;;;1.18;100.00;101007.09;5112234;28;20413;-82
2024/02/13 02:21:00;;;;;;;;;;;;;;;1.20;100.00;101001.66;5119651;27;19939;-82
2024/02/13 02:23:26;;;;;;;;;;;;;;;1.18;100.00;101008.91;5124345;27;19927;-82
2024/02/13 02:25:51;;;;;;;;;;;;;;;1.18;100.00;101008.91;5124842;27;19919;-82
2024/02/13 02:28:17;;;;;;;;;;;;;;;1.25;100.00;101007.38;5117421;27;20406;-82
2024/02/13 02:30:42;;;;;;;;;;;;;;;1.25;100.00;101006.56;5129485;27;19923;-82
2024/02/13 02:33:08;;;;;;;;;;;;;;;1.25;100.00;101010.03;5122905;27;19922;-82
2024/02/13 02:35:34;;;;;;;;;;;;;;;1.28;100.00;101017.75;5123936;27;19943;-82
2024/02/13 02:37:59;;;;;;;;;;;;;;;1.28;100.00;101017.75;5125207;27;19922;-83
2024/02/13 02:40:25;;;;;;;;;;;;;;;1.27;100.00;101016.06;5119568;27;19998;-83
2024/02/13 02:42:52;;;;;;;;;;;;;;;1.27;100.00;101013.41;5114277;27;19978;-82
2024/02/13 02:45:17;;;;;;;;;;;;;;;1.28;100.00;101020.41;5118135;27;19969;-80
2024/02/13 02:47:42;;;;;;;;;;;;;;;1.27;100.00;101018.72;5120879;27;19927;-82
2024/02/13 02:50:10;;;;;;;;;;;;;;;1.32;100.00;101021.81;5127032;27;19987;-82
2024/02/13 02:52:35;;;;;;;;;;;;;;;1.33;100.00;101027.94;5109968;27;19919;-82
2024/02/13 02:55:00;;;;;;;;;;;;;;;1.33;100.00;101027.94;5122491;27;20026;-82
2024/02/13 02:57:26;;;;;;;;;;;;;;;1.27;100.00;101031.97;5114568;28;19924;-82
2024/02/13 02:59:52;;;;;;;;;;;;;;;1.26;100.00;101029.47;5120404;28;19935;-82
2024/02/13 03:02:17;;;;;;;;;;;;;;;1.27;100.00;101029.31;5119942;28;20362;-82
2024/02/13 03:04:42;;;;;;;;;;;;;;;1.25;100.00;101025.97;5113220;28;19919;-82
2024/02/13 03:07:09;;;;;;;;;;;;;;;1.26;100.00;101038.25;5123756;28;19954;-82
2024/02/13 03:09:34;;;;;;;;;;;;;;;1.25;100.00;101036.56;5124430;28;20004;-82
2024/02/13 03:12:00;;;;;;;;;;;;;;;1.09;100.00;101041.50;5121487;28;20035;-82
2024/02/13 03:14:25;;;;;;;;;;;;;;;1.08;100.00;101032.72;5103179;28;19916;-82
2024/02/13 03:16:50;;;;;;;;;;;;;;;1.14;100.00;101028.69;5112909;28;19920;-82
2024/02/13 03:19:16;;;;;;;;;;;;;;;1.13;100.00;101033.19;5127035;28;19924;-82
2024/02/13 03:21:42;;;;;;;;;;;;;;;1.09;100.00;101031.75;5120693;28;19974;-79
2024/02/13 03:24:08;;;;;;;;;;;;;;;1.14;100.00;101031.34;5125285;28;19924;-82
2024/02/13 03:26:33;;;;;;;;;;;;;;;1.15;100.00;101025.06;5125509;28;19924;-81
2024/02/13 03:28:58;;;;;;;;;;;;;;;1.14;100.00;101031.34;5116556;28;19923;-81
2024/02/13 03:31:24;;;;;;;;;;;;;;;1.16;100.00;101024.09;5128987;28;19919;-82
2024/02/13 03:33:49;;;;;;;;;;;;;;;1.13;100.00;101027.88;5147366;28;19928;-81
2024/02/13 03:36:16;;;;;;;;;;;;;;;1.13;100.00;101025.22;5113504;28;19926;-82
2024/02/13 03:38:43;;;;;;;;;;;;;;;1.13;100.00;101021.72;5122849;28;20002;-82
2024/02/13 03:41:08;;;;;;;;;;;;;;;1.08;100.00;101023.91;5124716;28;20330;-84
2024/02/13 03:43:34;;;;;;;;;;;;;;;1.08;100.00;101024.75;5127522;28;20025;-82
2024/02/13 03:45:59;;;;;;;;;;;;;;;1.13;100.00;101016.41;5112714;28;20013;-80
2024/02/13 03:48:24;;;;;;;;;;;;;;;1.11;100.00;101019.19;5118224;28;19920;-81
2024/02/13 03:50:49;;;;;;;;;;;;;;;1.09;100.00;101018.50;5119594;28;20010;-81
2024/02/13 03:53:15;;;;;;;;;;;;;;;1.06;100.00;101026.69;5119817;28;19998;-81
2024/02/13 03:55:40;;;;;;;;;;;;;;;1.05;100.00;101031.19;5124878;28;19954;-81
2024/02/13 03:58:06;;;;;;;;;;;;;;;1.04;100.00;101028.63;5131081;28;19949;-81
2024/02/13 04:00:32;;;;;;;;;;;;;;;1.10;100.00;101028.13;5128431;27;19915;-81
2024/02/13 04:02:57;;;;;;;;;;;;;;;1.12;100.00;101020.88;5129838;27;19980;-81
2024/02/13 04:05:24;;;;;;;;;;;;;;;1.09;100.00;101030.88;5124198;27;19920;-81
2024/02/13 04:07:49;;;;;;;;;;;;;;;1.06;100.00;101030.19;5128770;27;20006;-81
2024/02/13 04:10:17;;;;;;;;;;;;;;;1.06;100.00;101027.53;5125964;27;20019;-82
2024/02/13 04:12:43;;;;;;;;;;;;;;;1.05;100.00;101030.31;5119482;27;20319;-81
2024/02/13 04:15:08;;;;;;;;;;;;;;;1.06;100.00;101029.34;5131529;27;19927;-81
2024/02/13 04:17:34;;;;;;;;;;;;;;;1.04;100.00;101029.50;5132752;27;20006;-81
2024/02/13 04:19:59;;;;;;;;;;;;;;;1.03;100.00;101027.81;5126327;27;19920;-81
2024/02/13 04:22:25;;;;;;;;;;;;;;;0.97;100.00;101023.03;5128236;27;19990;-81
2024/02/13 04:24:50;;;;;;;;;;;;;;;0.95;100.00;101027.59;5129988;27;19966;-81
2024/02/13 04:27:15;;;;;;;;;;;;;;;0.95;100.00;101030.25;5112988;27;19971;-81
2024/02/13 04:29:42;;;;;;;;;;;;;;;0.93;100.00;101034.03;5114209;27;19958;-80
2024/02/13 04:32:07;;;;;;;;;;;;;;;0.87;100.00;101048.63;5122344;27;19920;-81
2024/02/13 04:34:33;;;;;;;;;;;;;;;0.87;100.00;101043.34;5115356;28;19946;-81
2024/02/13 04:36:59;;;;;;;;;;;;;;;0.85;100.00;101046.09;5123405;27;19925;-81
2024/02/13 04:39:24;;;;;;;;;;;;;;;0.85;100.00;101050.56;5124117;27;19942;-81
2024/02/13 04:41:51;;;;;;;;;;;;;;;0.82;100.00;101045.53;5126966;27;19919;-81
2024/02/13 04:44:16;;;;;;;;;;;;;;;0.85;100.00;101039.97;5131855;27;19924;-81
2024/02/13 04:46:42;;;;;;;;;;;;;;;0.88;100.00;101045.03;5124373;27;19943;-80
2024/02/13 04:49:07;;;;;;;;;;;;;;;0.85;100.00;101050.56;5126504;27;20410;-80
2024/02/13 04:51:32;;;;;;;;;;;;;;;0.88;100.00;101045.03;5132834;27;20339;-80
2024/02/13 04:53:57;;;;;;;;;;;;;;;0.89;100.00;101058.13;5123702;27;20333;-81
2024/02/13 04:56:23;;;;;;;;;;;;;;;0.87;100.00;101053.94;5133865;27;19942;-81
2024/02/13 04:58:55;;;;;;;;;;;;;;;0.86;100.00;101054.91;5128021;27;19920;-81
2024/02/13 05:01:20;;;;;;;;;;;;;;;0.83;100.00;101052.50;5120246;27;21499;-80
2024/02/13 05:08:57;;;;;;;;;;;;;;;0.73;100.00;101058.56;5126814;27;20687;-80
2024/02/13 05:11:23;;;;;;;;;;;;;;;0.79;100.00;101056.38;5122827;27;19919;-85
2024/02/13 05:13:49;;;;;;;;;;;;;;;0.80;100.00;101056.22;5117670;27;19959;-84
2024/02/13 05:16:14;;;;;;;;;;;;;;;0.79;100.00;101056.38;5119149;27;19948;-79
2024/02/13 05:18:39;;;;;;;;;;;;;;;0.78;100.00;101060.00;5125214;27;19920;-79
2024/02/13 05:21:05;;;;;;;;;;;;;;;0.79;100.00;101051.06;5118046;27;19961;-80
2024/02/13 05:23:30;;;;;;;;;;;;;;;0.79;100.00;101056.38;5114846;27;19920;-79
2024/02/13 05:25:56;;;;;;;;;;;;;;;0.79;100.00;101057.22;5116249;27;19931;-78
2024/02/13 05:28:21;;;;;;;;;;;;;;;0.78;100.00;101063.50;5121048;27;19923;-79
2024/02/13 05:30:47;;;;;;;;;;;;;;;0.82;100.00;101058.78;5126180;27;20382;-79
2024/02/13 05:33:12;;;;;;;;;;;;;;;0.86;100.00;101062.84;5118847;27;20367;-79
2024/02/13 05:35:38;;;;;;;;;;;;;;;0.84;100.00;101059.50;5120819;27;20275;-79
2024/02/13 05:38:03;;;;;;;;;;;;;;;0.77;100.00;101063.59;5133523;27;20013;-79
2024/02/13 05:40:29;;;;;;;;;;;;;;;0.79;100.00;101059.88;5129119;27;19929;-78
2024/02/13 05:42:55;;;;;;;;;;;;;;;0.80;100.00;101053.56;5127349;27;19920;-79
2024/02/13 05:45:20;;;;;;;;;;;;;;;0.82;100.00;101050.81;5124716;27;19920;-79
2024/02/13 05:47:45;;;;;;;;;;;;;;;0.81;100.00;101057.91;5127880;27;19926;-79
2024/02/13 05:50:11;;;;;;;;;;;;;;;0.83;100.00;101063.09;5120763;27;19919;-79
2024/02/13 05:52:37;;;;;;;;;;;;;;;0.78;100.00;101060.00;5114750;27;19969;-79
2024/02/13 05:55:03;;;;;;;;;;;;;;;0.78;100.00;101062.63;5119772;27;19916;-78
2024/02/13 05:57:30;;;;;;;;;;;;;;;0.79;100.00;101061.66;5120402;27;19923;-79
2024/02/13 05:59:56;;;;;;;;;;;;;;;0.77;100.00;101060.94;5120906;27;20349;-79
2024/02/13 06:02:22;;;;;;;;;;;;;;;0.77;100.00;101058.31;5115902;27;19998;-79
2024/02/13 06:04:49;;;;;;;;;;;;;;;0.73;100.00;101068.31;5120948;27;19928;-80
2024/02/13 06:07:14;;;;;;;;;;;;;;;0.73;100.00;101069.16;5120514;27;20359;-80
2024/02/13 06:09:39;;;;;;;;;;;;;;;0.71;100.00;101065.78;5119980;27;19919;-80
2024/02/13 06:12:06;;;;;;;;;;;;;;;0.69;100.00;101073.06;5126696;27;19930;-79
2024/02/13 06:14:31;;;;;;;;;;;;;;;0.70;100.00;101069.44;5131736;27;19951;-79
2024/02/13 06:16:57;;;;;;;;;;;;;;;0.71;100.00;101073.72;5119606;27;19978;-79
2024/02/13 06:19:24;;;;;;;;;;;;;;;0.72;100.00;101072.75;5121894;27;19963;-79
2024/02/13 06:21:50;;;;;;;;;;;;;;;0.72;100.00;101078.06;5123213;27;20481;-78
2024/02/13 06:24:15;;;;;;;;;;;;;;;0.71;100.00;101079.03;5117051;27;20006;-80
2024/02/13 06:26:40;;;;;;;;;;;;;;;0.70;100.00;101073.88;5121217;27;20310;-79
2024/02/13 06:29:06;;;;;;;;;;;;;;;0.70;100.00;101085.34;5116353;27;19993;-80
2024/02/13 06:31:34;;;;;;;;;;;;;;;0.67;100.00;101077.63;5114296;27;19950;-80
2024/02/13 06:34:00;;;;;;;;;;;;;;;0.69;100.00;101083.66;5116575;27;20401;-80
2024/02/13 06:36:26;;;;;;;;;;;;;;;0.70;100.00;101082.69;5124405;27;19979;-79
2024/02/13 06:38:51;;;;;;;;;;;;;;;0.67;100.00;101090.88;5114090;27;19962;-79
2024/02/13 06:41:17;;;;;;;;;;;;;;;0.68;100.00;101079.31;5126174;27;20024;-79
2024/02/13 06:43:42;;;;;;;;;;;;;;;0.71;100.00;101081.69;5112980;27;20347;-80
2024/02/13 06:46:09;;;;;;;;;;;;;;;0.71;100.00;101088.81;5130734;27;20346;-79
2024/02/13 06:48:34;;;;;;;;;;;;;;;0.72;100.00;101101.09;5124866;27;19920;-78
2024/02/13 06:51:00;;;;;;;;;;;;;;;0.72;100.00;101099.25;5127919;27;19973;-79
2024/02/13 06:53:25;;;;;;;;;;;;;;;0.72;100.00;101112.50;5119182;27;20003;-79
2024/02/13 06:55:50;;;;;;;;;;;;;;;0.69;100.00;101112.78;5122128;27;19919;-80
2024/02/13 06:58:17;;;;;;;;;;;;;;;0.71;100.00;101105.53;5123544;28;19919;-79
2024/02/13 07:00:42;;;;;;;;;;;;;;;0.71;100.00;101112.66;5116250;27;20389;-79
2024/02/13 07:03:08;;;;;;;;;;;;;;;0.72;100.00;101115.16;5116567;28;19919;-79
2024/02/13 07:05:33;;;;;;;;;;;;;;;0.75;100.00;101120.22;5105562;28;20419;-79
2024/02/13 07:07:59;;;;;;;;;;;;;;;0.79;100.00;101122.63;5120537;28;19976;-80
2024/02/13 07:10:24;;;;;;;;;;;;;;;0.83;100.00;101121.41;5123803;28;20282;-80
2024/02/13 07:12:49;;;;;;;;;;;;;;;0.85;100.00;101122.13;5115715;28;19915;-80
2024/02/13 07:15:15;;;;;;;;;;;;;;;0.88;100.00;101113.94;5119242;28;20240;-79
2024/02/13 07:17:40;;;;;;;;;;;;;;;0.93;100.00;101118.84;5117420;28;19925;-79
2024/02/13 07:20:06;;;;;;;;;;;;;;;1.10;100.00;101120.06;5120870;28;19950;-79
2024/02/13 07:22:31;;;;;;;;;;;;;;;1.24;100.00;101140.13;5125270;28;19924;-80
2024/02/13 07:24:58;;;;;;;;;;;;;;;1.37;100.00;101130.16;5129417;28;20301;-80
2024/02/13 07:27:24;;;;;;;;;;;;;;;1.67;100.00;101132.03;5122777;28;19935;-80
2024/02/13 07:29:49;;;;;;;;;;;;;;;1.87;100.00;101142.75;5114843;28;19919;-80
2024/02/13 07:32:14;;;;;;;;;;;;;;;2.01;100.00;101140.69;5128388;28;19955;-80
2024/02/13 07:34:42;;;;;;;;;;;;;;;2.17;100.00;101150.84;5118969;28;20026;-80
2024/02/13 07:39:32;;;;;;;;;;;;;;;2.51;100.00;101139.88;5104915;22;19924;-80
2024/02/13 07:41:57;;;;;;;;;;;;;;;2.79;100.00;101146.22;5113276;28;19923;-80
2024/02/13 07:44:27;;;;;;;;;;;;;;;2.88;100.00;101141.88;5106736;28;19926;-80
2024/02/13 07:46:54;;;;;;;;;;;;;;;2.86;100.00;101147.31;5106016;28;19928;-80
2024/02/13 07:49:19;;;;;;;;;;;;;;;2.84;100.00;101140.47;5097795;28;20361;-80
2024/02/13 07:51:44;;;;;;;;;;;;;;;3.09;100.00;101143.56;5107515;28;19936;-80
2024/02/13 07:54:10;;;;;;;;;;;;;;;3.23;100.00;101143.13;5113552;28;19920;-80
2024/02/13 07:56:37;;;;;;;;;;;;;;;3.46;100.00;101149.00;5109004;28;19920;-78
2024/02/13 07:59:02;;;;;;;;;;;;;;;3.84;100.00;101150.84;5095047;28;19920;-79
2024/02/13 08:01:27;;;;;;;;;;;;;;;3.82;100.00;101158.16;5095004;28;19924;-79
2024/02/13 08:03:55;;;;;;;;;;;;;;;3.93;100.00;101165.94;5102895;28;19928;-79
2024/02/13 08:06:20;;;;;;;;;;;;;;;4.17;100.00;101172.59;5113632;28;20006;-79
2024/02/13 08:08:46;;;;;;;;;;;;;;;4.50;100.00;101165.00;5099594;28;20014;-79
2024/02/13 08:11:16;;;;;;;;;;;;;;;4.80;100.00;101168.31;5110475;28;19962;-79
2024/02/13 08:13:41;;;;;;;;;;;;;;;4.76;100.00;101166.97;5101356;28;20432;-79
2024/02/13 08:16:08;;;;;;;;;;;;;;;4.82;100.00;101175.19;5105451;28;19920;-79
2024/02/13 08:18:34;;;;;;;;;;;;;;;4.94;100.00;101178.44;5094683;28;19928;-80
2024/02/13 08:21:00;;;;;;;;;;;;;;;5.21;100.00;101179.38;5083716;28;19920;-79
2024/02/13 08:23:25;;;;;;;;;;;;;;;5.54;100.00;101182.31;5099850;28;19974;-79
2024/02/13 08:25:50;;;;;;;;;;;;;;;5.48;100.00;101185.59;5114579;28;20252;-80
2024/02/13 08:28:16;;;;;;;;;;;;;;;5.94;97.42;101189.91;5110989;28;19919;-79
2024/02/13 08:30:41;;;;;;;;;;;;;;;5.91;96.73;101191.09;5101804;28;19920;-79
2024/02/13 08:33:07;;;;;;;;;;;;;;;6.03;96.67;101186.31;5103182;28;19919;-79
2024/02/13 08:35:32;;;;;;;;;;;;;;;5.75;97.22;101202.50;5113689;28;19920;-79
2024/02/13 08:37:57;;;;;;;;;;;;;;;5.37;99.77;101200.06;5104409;28;20403;-79
2024/02/13 08:40:22;;;;;;;;;;;;;;;4.83;100.00;101176.88;5103621;28;19920;-79
2024/02/13 08:42:47;;;;;;;;;;;;;;;4.40;100.00;101181.91;5105888;28;19931;-79
2024/02/13 08:45:13;;;;;;;;;;;;;;;3.99;100.00;101184.03;5109107;28;19920;-79
2024/02/13 08:47:38;;;;;;;;;;;;;;;3.90;100.00;101200.84;5105992;28;19973;-79
2024/02/13 08:50:05;;;;;;;;;;;;;;;3.89;100.00;101194.72;5106852;28;19920;-79
2024/02/13 08:52:33;;;;;;;;;;;;;;;3.72;100.00;101203.44;5095149;28;19920;-79
2024/02/13 08:54:59;;;;;;;;;;;;;;;3.54;100.00;101200.66;5108407;28;19920;-80
2024/02/13 08:57:24;;;;;;;;;;;;;;;3.53;100.00;101199.00;5094675;28;20321;-79
2024/02/13 08:59:54;;;;;;;;;;;;;;;3.53;100.00;101194.50;5104180;28;19977;-79
2024/02/13 09:02:19;;;;;;;;;;;;;;;3.56;100.00;101209.34;5105306;28;20023;-79
2024/02/13 09:04:48;;;;;;;;;;;;;;;3.68;100.00;101208.22;5105341;28;19951;-79
2024/02/13 09:07:19;;;;;;;;;;;;;;;3.72;100.00;101212.25;5104354;28;19950;-79
2024/02/13 09:09:45;;;;;;;;;;;;;;;3.60;100.00;101205.41;5098340;28;19919;-79
2024/02/13 09:12:11;;;;;;;;;;;;;;;3.68;100.00;101205.56;5104273;28;20433;-79
2024/02/13 09:14:36;;;;;;;;;;;;;;;3.67;100.00;101211.88;5110169;28;19930;-78
2024/02/13 09:17:01;;;;;;;;;;;;;;;3.81;100.00;101212.41;5106100;28;20006;-79
2024/02/13 09:19:27;;;;;;;;;;;;;;;3.80;100.00;101206.22;5104581;28;19919;-79
2024/02/13 09:21:52;;;;;;;;;;;;;;;3.92;100.00;101220.19;5104377;28;19928;-79
2024/02/13 09:24:17;;;;;;;;;;;;;;;3.93;100.00;101221.88;5113595;28;20266;-79
2024/02/13 09:26:42;;;;;;;;;;;;;;;4.08;100.00;101230.28;5100600;28;19928;-79
2024/02/13 09:29:08;;;;;;;;;;;;;;;4.23;100.00;101233.31;5101183;28;20014;-79
2024/02/13 09:31:33;;;;;;;;;;;;;;;4.44;100.00;101227.75;5095508;28;19962;-79
2024/02/13 09:33:59;;;;;;;;;;;;;;;4.49;100.00;101209.50;5092315;28;20360;-79
2024/02/13 09:36:24;;;;;;;;;;;;;;;4.47;100.00;101229.28;5092918;28;20348;-78
2024/02/13 09:38:50;;;;;;;;;;;;;;;4.54;100.00;101230.38;5109346;28;20009;-79
2024/02/13 09:41:15;;;;;;;;;;;;;;;4.64;100.00;101204.47;5105770;28;19923;-79
2024/02/13 09:43:42;;;;;;;;;;;;;;;4.69;100.00;101230.69;5095869;28;19924;-79
2024/02/13 09:46:07;;;;;;;;;;;;;;;4.76;100.00;101225.63;5086397;28;20402;-79
2024/02/13 09:48:33;;;;;;;;;;;;;;;4.65;100.00;101232.00;5087525;28;20025;-79
2024/02/13 09:50:58;;;;;;;;;;;;;;;4.76;100.00;101234.47;5101995;28;19978;-79
2024/02/13 09:53:24;;;;;;;;;;;;;;;4.83;100.00;101229.38;5086048;28;19919;-79
2024/02/13 09:55:49;;;;;;;;;;;;;;;4.99;100.00;101239.38;5096045;28;19930;-80
2024/02/13 09:58:15;;;;;;;;;;;;;;;5.23;100.00;101241.47;5102542;28;20011;-79
2024/02/13 10:00:43;;;;;;;;;;;;;;;5.27;100.00;101242.84;5104535;28;20029;-79
2024/02/13 10:03:08;;;;;;;;;;;;;;;5.30;100.00;101242.50;5092987;28;19981;-79
2024/02/13 10:05:34;;;;;;;;;;;;;;;5.45;100.00;101244.66;5112346;28;19928;-79
2024/02/13 10:07:59;;;;;;;;;;;;;;;5.42;100.00;101245.78;5096600;28;19920;-80
2024/02/13 10:10:24;;;;;;;;;;;;;;;5.48;100.00;101247.00;5101901;28;19927;-80
2024/02/13 10:12:50;;;;;;;;;;;;;;;5.38;100.00;101243.59;5098152;28;20401;-79
2024/02/13 10:15:19;;;;;;;;;;;;;;;5.42;100.00;101256.47;5098392;28;19920;-79
2024/02/13 10:17:45;;;;;;;;;;;;;;;5.36;100.00;101253.59;5095728;28;19920;-79
2024/02/13 10:20:11;;;;;;;;;;;;;;;5.33;100.00;101252.06;5111579;28;19920;-79
2024/02/13 10:23:04;;;;;;;;;;;;;;;5.22;100.00;101261.13;5085207;28;19919;-79
2024/02/13 10:25:32;;;;;;;;;;;;;;;5.43;100.00;101250.16;5090912;28;19967;-79
2024/02/13 10:28:00;;;;;;;;;;;;;;;5.59;100.00;101248.59;5096547;28;19920;-79
2024/02/13 10:30:27;;;;;;;;;;;;;;;5.61;100.00;101250.16;5101305;28;19927;-79
2024/02/13 10:32:52;;;;;;;;;;;;;;;5.66;100.00;101254.16;5091938;28;19931;-79
2024/02/13 10:35:21;;;;;;;;;;;;;;;5.71;100.00;101262.56;5091904;28;19928;-79
2024/02/13 10:37:47;;;;;;;;;;;;;;;5.61;100.00;101260.81;5091214;28;20378;-79
2024/02/13 10:40:23;;;;;;;;;;;;;;;5.67;100.00;101267.38;5092317;28;19924;-79
2024/02/13 10:42:49;;;;;;;;;;;;;;;5.72;100.00;101262.44;5104502;28;19930;-79
2024/02/13 10:45:14;;;;;;;;;;;;;;;5.86;100.00;101261.00;5098220;28;19920;-79
2024/02/13 10:47:42;;;;;;;;;;;;;;;5.97;100.00;101253.75;5099870;28;19923;-79
2024/02/13 10:50:07;;;;;;;;;;;;;;;6.10;100.00;101259.53;5108452;28;19974;-79
2024/02/13 10:52:34;;;;;;;;;;;;;;;6.08;100.00;101261.53;5099554;28;20283;-79
2024/02/13 10:55:10;;;;;;;;;;;;;;;6.09;100.00;101249.84;5100242;28;19924;-79
2024/02/13 10:57:38;;;;;;;;;;;;;;;6.04;100.00;101254.81;5091751;28;19922;-79
2024/02/13 11:00:10;;;;;;;;;;;;;;;5.97;100.00;101251.06;5100217;28;19916;-79
2024/02/13 11:02:36;;;;;;;;;;;;;;;6.16;100.00;101258.91;5107020;28;19924;-79
2024/02/13 11:05:08;;;;;;;;;;;;;;;6.31;100.00;101251.13;5090639;28;20494;-79
2024/02/13 11:07:33;;;;;;;;;;;;;;;6.42;100.00;101241.16;5096183;28;20049;-79
2024/02/13 11:09:59;;;;;;;;;;;;;;;6.70;100.00;101257.84;5111310;28;20002;-79
2024/02/13 11:12:24;;;;;;;;;;;;;;;6.80;99.56;101261.22;5095651;28;19928;-79
2024/02/13 11:14:49;;;;;;;;;;;;;;;6.98;98.50;101253.06;5095681;28;20042;-79
2024/02/13 11:17:15;;;;;;;;;;;;;;;7.15;96.45;101241.56;5103705;28;19923;-79
2024/02/13 11:19:45;;;;;;;;;;;;;;;6.96;97.35;101265.78;5095274;28;19920;-79
2024/02/13 11:22:12;;;;;;;;;;;;;;;7.19;96.32;101262.47;5095840;28;20268;-79
2024/02/13 11:24:51;;;;;;;;;;;;;;;7.23;95.04;101261.16;5096766;28;19995;-79
2024/02/13 11:27:17;;;;;;;;;;;;;;;6.98;97.43;101266.44;5104929;28;19928;-79
2024/02/13 11:29:57;;;;;;;;;;;;;;;7.12;97.10;101267.66;5106048;28;19919;-79
2024/02/13 11:32:25;;;;;;;;;;;;;;;7.30;94.95;101272.03;5115064;28;19958;-79
2024/02/13 11:34:52;;;;;;;;;;;;;;;7.15;93.55;101260.31;5103786;28;19919;-79
2024/02/13 11:37:18;;;;;;;;;;;;;;;7.01;95.65;101273.34;5101098;28;20017;-79
2024/02/13 11:39:45;;;;;;;;;;;;;;;7.18;95.54;101273.38;5098509;28;20396;-78
2024/02/13 11:42:14;;;;;;;;;;;;;;;7.23;96.00;101279.06;5101881;28;19920;-79
2024/02/13 11:44:40;;;;;;;;;;;;;;;7.34;92.30;101268.03;5077681;28;20277;-79
2024/02/13 11:47:06;;;;;;;;;;;;;;;7.48;91.32;101273.75;5080114;28;19920;-79
2024/02/13 11:49:31;;;;;;;;;;;;;;;7.52;91.40;101269.72;5089649;28;19955;-78
2024/02/13 11:51:59;;;;;;;;;;;;;;;7.39;91.15;101267.53;5112762;28;20374;-78
2024/02/13 11:54:24;;;;;;;;;;;;;;;7.36;92.26;101275.91;5101419;28;19943;-79
2024/02/13 11:56:50;;;;;;;;;;;;;;;7.42;90.68;101265.34;5092107;28;20295;-79
2024/02/13 11:59:16;;;;;;;;;;;;;;;7.44;89.76;101266.03;5088365;28;19923;-79
2024/02/13 12:01:42;;;;;;;;;;;;;;;7.50;90.39;101272.56;5108852;28;19950;-78
2024/02/13 12:04:11;;;;;;;;;;;;;;;8.32;85.97;101281.56;5097239;28;20343;-79
2024/02/13 12:06:36;;;;;;;;;;;;;;;9.40;79.73;101265.81;5106345;28;20010;-79
2024/02/13 12:09:02;;;;;;;;;;;;;;;9.77;76.54;101274.09;5087585;28;20022;-79
2024/02/13 12:11:28;;;;;;;;;;;;;;;9.61;77.35;101275.06;5095125;28;20143;-78
2024/02/13 12:13:54;;;;;;;;;;;;;;;10.78;70.85;101271.03;5105417;28;19923;-78
2024/02/13 12:16:20;;;;;;;;;;;;;;;10.63;69.56;101284.50;5105692;28;19919;-78
2024/02/13 12:18:45;;;;;;;;;;;;;;;10.33;69.49;101273.72;5105477;28;20347;-78
2024/02/13 12:21:13;;;;;;;;;;;;;;;9.50;73.34;101269.09;5094825;28;19926;-78
2024/02/13 12:23:38;;;;;;;;;;;;;;;8.94;76.27;101272.81;5108418;28;20509;-78
2024/02/13 12:26:06;;;;;;;;;;;;;;;8.72;77.58;101254.78;5110077;28;19980;-78
2024/02/13 12:28:32;;;;;;;;;;;;;;;8.33;80.94;101269.81;5103293;28;19931;-78
2024/02/13 12:30:58;;;;;;;;;;;;;;;8.93;77.71;101268.44;5088384;28;20236;-78
2024/02/13 12:33:24;;;;;;;;;;;;;;;9.17;75.81;101274.72;5093849;28;19920;-79
2024/02/13 12:36:00;;;;;;;;;;;;;;;9.78;73.49;101276.59;5094329;28;19942;-79
2024/02/13 12:38:27;;;;;;;;;;;;;;;9.19;75.25;101267.28;5093754;28;19927;-78
2024/02/13 12:40:53;;;;;;;;;;;;;;;9.20;74.76;101268.13;5093147;28;19928;-79